sensor_id;sensor_type;location;lat;lon;timestamp;pressure;altitude;pressure_sealevel;temperature;humidity
17855;BME280;9053;53.358;6.382;2024-01-10T00:01:13;103534.59;;;-1.22;92.81
17855;BME280;9053;53.358;6.382;2024-01-10T00:03:46;103521.69;;;-1.22;92.94
17855;BME280;9053;53.358;6.382;2024-01-10T00:06:16;103518.38;;;-1.21;92.88
17855;BME280;9053;53.358;6.382;2024-01-10T00:08:46;103523.19;;;-1.17;92.88
17855;BME280;9053;53.358;6.382;2024-01-10T00:11:16;103524.63;;;-1.19;92.81
17855;BME280;9053;53.358;6.382;2024-01-10T00:13:50;103518.75;;;-1.18;92.94
17855;BME280;9053;53.358;6.382;2024-01-10T00:16:29;103514.50;;;-1.17;92.96
17855;BME280;9053;53.358;6.382;2024-01-10T00:18:59;103514.72;;;-1.16;92.92
17855;BME280;9053;53.358;6.382;2024-01-10T00:21:30;103508.81;;;-1.15;92.86
17855;BME280;9053;53.358;6.382;2024-01-10T00:24:01;103516.91;;;-1.12;92.54
17855;BME280;9053;53.358;6.382;2024-01-10T00:26:31;103511.00;;;-1.18;92.35
17855;BME280;9053;53.358;6.382;2024-01-10T00:29:11;103499.19;;;-1.23;92.35
17855;BME280;9053;53.358;6.382;2024-01-10T00:31:47;103498.66;;;-1.20;92.23
17855;BME280;9053;53.358;6.382;2024-01-10T00:34:25;103497.53;;;-1.22;92.16
17855;BME280;9053;53.358;6.382;2024-01-10T00:36:58;103491.59;;;-1.21;92.18
17855;BME280;9053;53.358;6.382;2024-01-10T00:39:28;103492.72;;;-1.19;92.21
17855;BME280;9053;53.358;6.382;2024-01-10T00:42:03;103485.91;;;-1.19;92.12
17855;BME280;9053;53.358;6.382;2024-01-10T00:44:33;103481.69;;;-1.18;91.98
17855;BME280;9053;53.358;6.382;2024-01-10T00:47:06;103488.69;;;-1.17;91.83
17855;BME280;9053;53.358;6.382;2024-01-10T00:49:36;103483.88;;;-1.21;91.68
17855;BME280;9053;53.358;6.382;2024-01-10T00:52:06;103478.53;;;-1.23;91.71
17855;BME280;9053;53.358;6.382;2024-01-10T00:54:36;103482.41;;;-1.19;91.61
17855;BME280;9053;53.358;6.382;2024-01-10T00:57:06;103480.94;;;-1.17;91.66
17855;BME280;9053;53.358;6.382;2024-01-10T00:59:38;103477.97;;;-1.20;91.57
17855;BME280;9053;53.358;6.382;2024-01-10T01:02:10;103480.72;;;-1.19;91.47
17855;BME280;9053;53.358;6.382;2024-01-10T01:04:40;103474.28;;;-1.22;91.33
17855;BME280;9053;53.358;6.382;2024-01-10T01:07:13;103486.44;;;-1.21;91.44
17855;BME280;9053;53.358;6.382;2024-01-10T01:09:43;103478.69;;;-1.21;91.43
17855;BME280;9053;53.358;6.382;2024-01-10T01:12:14;103474.66;;;-1.19;91.50
17855;BME280;9053;53.358;6.382;2024-01-10T01:14:44;103476.53;;;-1.18;91.54
17855;BME280;9053;53.358;6.382;2024-01-10T01:17:16;103481.69;;;-1.18;91.47
17855;BME280;9053;53.358;6.382;2024-01-10T01:20:01;103480.19;;;-1.16;91.43
17855;BME280;9053;53.358;6.382;2024-01-10T01:22:38;103468.94;;;-1.17;91.37
17855;BME280;9053;53.358;6.382;2024-01-10T01:25:11;103486.84;;;-1.18;91.26
17855;BME280;9053;53.358;6.382;2024-01-10T01:27:43;103484.06;;;-1.20;91.11
17855;BME280;9053;53.358;6.382;2024-01-10T01:30:13;103480.56;;;-1.20;91.06
17855;BME280;9053;53.358;6.382;2024-01-10T01:32:46;103478.31;;;-1.32;90.94
17855;BME280;9053;53.358;6.382;2024-01-10T01:35:16;103479.75;;;-1.34;91.04
17855;BME280;9053;53.358;6.382;2024-01-10T01:37:49;103476.81;;;-1.37;90.89
17855;BME280;9053;53.358;6.382;2024-01-10T01:40:22;103479.03;;;-1.40;90.95
17855;BME280;9053;53.358;6.382;2024-01-10T01:42:52;103476.81;;;-1.37;91.05
17855;BME280;9053;53.358;6.382;2024-01-10T01:45:22;103474.09;;;-1.31;91.18
17855;BME280;9053;53.358;6.382;2024-01-10T01:47:54;103477.72;;;-1.36;91.07
17855;BME280;9053;53.358;6.382;2024-01-10T01:50:24;103468.50;;;-1.41;91.01
17855;BME280;9053;53.358;6.382;2024-01-10T01:52:56;103478.81;;;-1.41;91.05
17855;BME280;9053;53.358;6.382;2024-01-10T01:55:26;103474.41;;;-1.42;91.11
17855;BME280;9053;53.358;6.382;2024-01-10T01:57:59;103469.25;;;-1.42;91.09
17855;BME280;9053;53.358;6.382;2024-01-10T02:00:32;103466.88;;;-1.41;91.01
17855;BME280;9053;53.358;6.382;2024-01-10T02:03:08;103464.44;;;-1.39;91.06
17855;BME280;9053;53.358;6.382;2024-01-10T02:05:40;103469.44;;;-1.41;90.98
17855;BME280;9053;53.358;6.382;2024-01-10T02:08:11;103462.63;;;-1.40;90.99
17855;BME280;9053;53.358;6.382;2024-01-10T02:10:41;103465.19;;;-1.40;90.69
17855;BME280;9053;53.358;6.382;2024-01-10T02:13:11;103475.31;;;-1.42;90.61
17855;BME280;9053;53.358;6.382;2024-01-10T02:15:41;103474.41;;;-1.42;90.60
17855;BME280;9053;53.358;6.382;2024-01-10T02:18:14;103468.31;;;-1.43;90.42
17855;BME280;9053;53.358;6.382;2024-01-10T02:20:49;103461.47;;;-1.49;90.13
17855;BME280;9053;53.358;6.382;2024-01-10T02:23:19;103462.91;;;-1.52;90.14
17855;BME280;9053;53.358;6.382;2024-01-10T02:25:52;103453.56;;;-1.51;90.14
17855;BME280;9053;53.358;6.382;2024-01-10T02:28:22;103461.47;;;-1.49;90.19
17855;BME280;9053;53.358;6.382;2024-01-10T02:30:54;103457.41;;;-1.47;90.22
17855;BME280;9053;53.358;6.382;2024-01-10T02:33:24;103461.84;;;-1.46;89.98
17855;BME280;9053;53.358;6.382;2024-01-10T02:35:54;103459.25;;;-1.46;89.96
17855;BME280;9053;53.358;6.382;2024-01-10T02:38:32;103458.00;;;-1.43;89.91
17855;BME280;9053;53.358;6.382;2024-01-10T02:41:04;103454.66;;;-1.42;89.81
17855;BME280;9053;53.358;6.382;2024-01-10T02:43:36;103445.25;;;-1.41;89.74
17855;BME280;9053;53.358;6.382;2024-01-10T02:46:05;103454.13;;;-1.39;89.69
17855;BME280;9053;53.358;6.382;2024-01-10T02:48:36;103455.78;;;-1.40;89.57
17855;BME280;9053;53.358;6.382;2024-01-10T02:51:06;103460.03;;;-1.40;89.48
17855;BME280;9053;53.358;6.382;2024-01-10T02:53:44;103459.84;;;-1.42;89.40
17855;BME280;9053;53.358;6.382;2024-01-10T02:56:21;103460.00;;;-1.47;89.25
17855;BME280;9053;53.358;6.382;2024-01-10T02:58:52;103458.72;;;-1.51;89.33
17855;BME280;9053;53.358;6.382;2024-01-10T03:01:22;103456.13;;;-1.51;89.30
17855;BME280;9053;53.358;6.382;2024-01-10T03:03:52;103449.09;;;-1.52;89.29
17855;BME280;9053;53.358;6.382;2024-01-10T03:06:22;103449.66;;;-1.55;89.33
17855;BME280;9053;53.358;6.382;2024-01-10T03:08:54;103447.06;;;-1.55;89.42
17855;BME280;9053;53.358;6.382;2024-01-10T03:11:27;103445.22;;;-1.56;89.59
17855;BME280;9053;53.358;6.382;2024-01-10T03:14:01;103445.03;;;-1.57;89.67
17855;BME280;9053;53.358;6.382;2024-01-10T03:16:32;103443.91;;;-1.59;89.75
17855;BME280;9053;53.358;6.382;2024-01-10T03:19:03;103438.19;;;-1.57;89.86
17855;BME280;9053;53.358;6.382;2024-01-10T03:21:33;103439.69;;;-1.59;89.99
17855;BME280;9053;53.358;6.382;2024-01-10T03:24:04;103434.53;;;-1.59;90.20
17855;BME280;9053;53.358;6.382;2024-01-10T03:26:37;103424.75;;;-1.61;90.16
17855;BME280;9053;53.358;6.382;2024-01-10T03:29:07;103429.34;;;-1.66;90.26
17855;BME280;9053;53.358;6.382;2024-01-10T03:31:37;103427.31;;;-1.68;90.58
17855;BME280;9053;53.358;6.382;2024-01-10T03:34:07;103423.59;;;-1.70;90.68
17855;BME280;9053;53.358;6.382;2024-01-10T03:36:37;103421.38;;;-1.75;90.91
17855;BME280;9053;53.358;6.382;2024-01-10T03:39:09;103415.66;;;-1.72;91.03
17855;BME280;9053;53.358;6.382;2024-01-10T03:41:41;103414.56;;;-1.67;91.38
17855;BME280;9053;53.358;6.382;2024-01-10T03:44:17;103423.59;;;-1.70;91.45
17855;BME280;9053;53.358;6.382;2024-01-10T03:46:48;103409.41;;;-1.67;91.66
17855;BME280;9053;53.358;6.382;2024-01-10T03:49:18;103408.88;;;-1.64;91.76
17855;BME280;9053;53.358;6.382;2024-01-10T03:51:48;103404.66;;;-1.64;91.91
17855;BME280;9053;53.358;6.382;2024-01-10T03:54:18;103411.81;;;-1.68;92.00
17855;BME280;9053;53.358;6.382;2024-01-10T03:56:54;103404.78;;;-1.69;92.17
17855;BME280;9053;53.358;6.382;2024-01-10T03:59:24;103411.06;;;-1.67;92.34
17855;BME280;9053;53.358;6.382;2024-01-10T04:01:54;103403.72;;;-1.64;92.44
17855;BME280;9053;53.358;6.382;2024-01-10T04:04:24;103401.31;;;-1.63;92.59
17855;BME280;9053;53.358;6.382;2024-01-10T04:07:01;103405.94;;;-1.60;92.75
17855;BME280;9053;53.358;6.382;2024-01-10T04:09:31;103408.19;;;-1.56;92.81
17855;BME280;9053;53.358;6.382;2024-01-10T04:12:04;103407.06;;;-1.58;92.80
17855;BME280;9053;53.358;6.382;2024-01-10T04:14:40;103398.78;;;-1.56;93.00
17855;BME280;9053;53.358;6.382;2024-01-10T04:17:16;103408.19;;;-1.56;92.93
17855;BME280;9053;53.358;6.382;2024-01-10T04:19:53;103407.06;;;-1.58;92.93
17855;BME280;9053;53.358;6.382;2024-01-10T04:22:24;103404.44;;;-1.65;92.95
17855;BME280;9053;53.358;6.382;2024-01-10T04:24:56;103402.44;;;-1.61;93.00
17855;BME280;9053;53.358;6.382;2024-01-10T04:27:29;103399.28;;;-1.65;93.19
17855;BME280;9053;53.358;6.382;2024-01-10T04:29:59;103400.41;;;-1.63;93.20
17855;BME280;9053;53.358;6.382;2024-01-10T04:32:37;103410.53;;;-1.65;93.27
17855;BME280;9053;53.358;6.382;2024-01-10T04:35:09;103404.25;;;-1.67;93.45
17855;BME280;9053;53.358;6.382;2024-01-10T04:37:39;103405.38;;;-1.65;93.50
17855;BME280;9053;53.358;6.382;2024-01-10T04:40:10;103388.97;;;-1.65;93.63
17855;BME280;9053;53.358;6.382;2024-01-10T04:42:42;103388.75;;;-1.67;93.74
17855;BME280;9053;53.358;6.382;2024-01-10T04:45:13;103383.59;;;-1.67;93.70
17855;BME280;9053;53.358;6.382;2024-01-10T04:47:43;103383.41;;;-1.76;93.58
17855;BME280;9053;53.358;6.382;2024-01-10T04:50:14;103386.34;;;-1.80;93.93
17855;BME280;9053;53.358;6.382;2024-01-10T04:52:46;103382.84;;;-1.80;93.98
17855;BME280;9053;53.358;6.382;2024-01-10T04:55:16;103388.56;;;-1.76;94.15
17855;BME280;9053;53.358;6.382;2024-01-10T04:57:53;103391.53;;;-1.72;94.18
17855;BME280;9053;53.358;6.382;2024-01-10T05:00:24;103384.34;;;-1.68;94.32
17855;BME280;9053;53.358;6.382;2024-01-10T05:02:54;103389.31;;;-1.69;94.20
17855;BME280;9053;53.358;6.382;2024-01-10T05:05:27;103381.75;;;-1.75;94.25
17855;BME280;9053;53.358;6.382;2024-01-10T05:08:08;103376.38;;;-1.77;94.22
17855;BME280;9053;53.358;6.382;2024-01-10T05:10:38;103382.63;;;-1.82;94.05
17855;BME280;9053;53.358;6.382;2024-01-10T05:13:10;103384.28;;;-1.82;94.28
17855;BME280;9053;53.358;6.382;2024-01-10T05:15:43;103375.63;;;-1.83;94.18
17855;BME280;9053;53.358;6.382;2024-01-10T05:18:13;103379.09;;;-1.89;94.21
17855;BME280;9053;53.358;6.382;2024-01-10T05:20:44;103378.19;;;-1.90;94.29
17855;BME280;9053;53.358;6.382;2024-01-10T05:23:14;103380.78;;;-1.83;94.40
17855;BME280;9053;53.358;6.382;2024-01-10T05:25:47;103380.63;;;-1.77;94.29
17855;BME280;9053;53.358;6.382;2024-01-10T05:28:33;103376.25;;;-1.71;94.29
17855;BME280;9053;53.358;6.382;2024-01-10T05:31:06;103378.81;;;-1.71;94.26
17855;BME280;9053;53.358;6.382;2024-01-10T05:34:04;103372.91;;;-1.70;94.15
17855;BME280;9053;53.358;6.382;2024-01-10T05:36:39;103378.28;;;-1.68;94.05
17855;BME280;9053;53.358;6.382;2024-01-10T05:39:08;103372.56;;;-1.66;94.07
17855;BME280;9053;53.358;6.382;2024-01-10T05:41:41;103380.84;;;-1.68;94.03
17855;BME280;9053;53.358;6.382;2024-01-10T05:44:26;103374.59;;;-1.70;93.81
17855;BME280;9053;53.358;6.382;2024-01-10T05:46:57;103376.03;;;-1.72;93.75
17855;BME280;9053;53.358;6.382;2024-01-10T05:49:43;103369.59;;;-1.69;93.83
17855;BME280;9053;53.358;6.382;2024-01-10T05:52:13;103368.13;;;-1.67;93.70
17855;BME280;9053;53.358;6.382;2024-01-10T05:54:45;103377.16;;;-1.70;93.47
17855;BME280;9053;53.358;6.382;2024-01-10T05:57:19;103366.06;;;-1.77;93.43
17855;BME280;9053;53.358;6.382;2024-01-10T05:59:54;103366.06;;;-1.77;93.60
17855;BME280;9053;53.358;6.382;2024-01-10T06:02:31;103367.72;;;-1.77;93.47
17855;BME280;9053;53.358;6.382;2024-01-10T06:05:01;103364.22;;;-1.78;93.67
17855;BME280;9053;53.358;6.382;2024-01-10T06:07:33;103364.56;;;-1.82;93.36
17855;BME280;9053;53.358;6.382;2024-01-10T06:10:07;103359.63;;;-1.80;93.51
17855;BME280;9053;53.358;6.382;2024-01-10T06:12:37;103373.09;;;-1.76;93.55
17855;BME280;9053;53.358;6.382;2024-01-10T06:15:10;103369.75;;;-1.75;93.51
17855;BME280;9053;53.358;6.382;2024-01-10T06:17:44;103363.31;;;-1.78;93.45
17855;BME280;9053;53.358;6.382;2024-01-10T06:20:14;103362.94;;;-1.74;93.42
17855;BME280;9053;53.358;6.382;2024-01-10T06:22:59;103375.28;;;-1.71;93.42
17855;BME280;9053;53.358;6.382;2024-01-10T06:25:29;103374.00;;;-1.75;93.34
17855;BME280;9053;53.358;6.382;2024-01-10T06:28:00;103373.09;;;-1.76;93.39
17855;BME280;9053;53.358;6.382;2024-01-10T06:30:33;103369.94;;;-1.80;93.14
17855;BME280;9053;53.358;6.382;2024-01-10T06:33:06;103370.44;;;-1.90;93.09
17855;BME280;9053;53.358;6.382;2024-01-10T06:35:42;103363.78;;;-1.95;93.07
17855;BME280;9053;53.358;6.382;2024-01-10T06:38:21;103375.97;;;-1.94;93.04
17855;BME280;9053;53.358;6.382;2024-01-10T06:40:53;103366.56;;;-1.93;93.18
17855;BME280;9053;53.358;6.382;2024-01-10T06:43:25;103362.34;;;-1.93;93.23
17855;BME280;9053;53.358;6.382;2024-01-10T06:45:57;103370.81;;;-1.94;93.04
17855;BME280;9053;53.358;6.382;2024-01-10T06:48:27;103368.25;;;-1.94;93.11
17855;BME280;9053;53.358;6.382;2024-01-10T06:51:01;103369.00;;;-1.88;93.09
17855;BME280;9053;53.358;6.382;2024-01-10T06:53:31;103371.22;;;-1.84;93.00
17855;BME280;9053;53.358;6.382;2024-01-10T06:56:01;103373.59;;;-1.85;92.77
17855;BME280;9053;53.358;6.382;2024-01-10T06:58:37;103369.72;;;-1.82;92.78
17855;BME280;9053;53.358;6.382;2024-01-10T07:04:02;103376.00;;;-1.80;92.45
17855;BME280;9053;53.358;6.382;2024-01-10T07:06:32;103369.19;;;-1.79;92.33
17855;BME280;9053;53.358;6.382;2024-01-10T07:09:06;103373.44;;;-1.80;92.12
17855;BME280;9053;53.358;6.382;2024-01-10T07:11:37;103369.38;;;-1.78;92.17
17855;BME280;9053;53.358;6.382;2024-01-10T07:14:07;103375.09;;;-1.80;92.05
17855;BME280;9053;53.358;6.382;2024-01-10T07:16:46;103381.34;;;-1.85;91.96
17855;BME280;9053;53.358;6.382;2024-01-10T07:19:25;103378.56;;;-1.87;91.91
17855;BME280;9053;53.358;6.382;2024-01-10T07:22:05;103384.84;;;-1.85;92.00
17855;BME280;9053;53.358;6.382;2024-01-10T07:24:41;103380.97;;;-1.88;91.79
17855;BME280;9053;53.358;6.382;2024-01-10T07:27:14;103382.22;;;-1.92;91.67
17855;BME280;9053;53.358;6.382;2024-01-10T07:29:45;103387.41;;;-1.85;91.65
17855;BME280;9053;53.358;6.382;2024-01-10T07:32:21;103385.75;;;-1.84;91.42
17855;BME280;9053;53.358;6.382;2024-01-10T07:34:55;103374.19;;;-1.81;91.20
17855;BME280;9053;53.358;6.382;2024-01-10T07:37:25;103377.13;;;-1.78;91.10
17855;BME280;9053;53.358;6.382;2024-01-10T07:39:56;103370.84;;;-1.80;90.84
17855;BME280;9053;53.358;6.382;2024-01-10T07:42:26;103379.72;;;-1.78;90.67
17855;BME280;9053;53.358;6.382;2024-01-10T07:44:56;103384.13;;;-1.77;90.54
17855;BME280;9053;53.358;6.382;2024-01-10T07:47:28;103392.44;;;-1.72;90.47
17855;BME280;9053;53.358;6.382;2024-01-10T07:50:00;103393.19;;;-1.73;90.38
17855;BME280;9053;53.358;6.382;2024-01-10T07:52:30;103393.91;;;-1.74;90.04
17855;BME280;9053;53.358;6.382;2024-01-10T07:55:04;103405.16;;;-1.73;89.87
17855;BME280;9053;53.358;6.382;2024-01-10T07:57:35;103405.16;;;-1.73;89.78
17855;BME280;9053;53.358;6.382;2024-01-10T08:00:07;103402.19;;;-1.77;89.62
17855;BME280;9053;53.358;6.382;2024-01-10T08:02:42;103401.09;;;-1.79;89.50
17855;BME280;9053;53.358;6.382;2024-01-10T08:05:17;103406.06;;;-1.80;89.37
17855;BME280;9053;53.358;6.382;2024-01-10T08:07:50;103403.66;;;-1.86;89.43
17855;BME280;9053;53.358;6.382;2024-01-10T08:10:20;103407.13;;;-1.85;89.30
17855;BME280;9053;53.358;6.382;2024-01-10T08:12:52;103400.53;;;-1.83;89.34
17855;BME280;9053;53.358;6.382;2024-01-10T08:15:23;103400.69;;;-1.82;89.29
17855;BME280;9053;53.358;6.382;2024-01-10T08:18:01;103408.44;;;-1.82;89.24
17855;BME280;9053;53.358;6.382;2024-01-10T08:20:41;103405.69;;;-1.83;89.12
17855;BME280;9053;53.358;6.382;2024-01-10T08:23:11;103401.59;;;-1.88;89.12
17855;BME280;9053;53.358;6.382;2024-01-10T08:25:45;103399.94;;;-1.88;89.15
17855;BME280;9053;53.358;6.382;2024-01-10T08:28:15;103407.09;;;-1.92;89.13
17855;BME280;9053;53.358;6.382;2024-01-10T08:30:45;103398.66;;;-1.91;88.97
17855;BME280;9053;53.358;6.382;2024-01-10T08:33:17;103397.38;;;-1.88;88.96
17855;BME280;9053;53.358;6.382;2024-01-10T08:35:47;103390.91;;;-1.91;88.82
17855;BME280;9053;53.358;6.382;2024-01-10T08:38:19;103385.00;;;-1.90;88.89
17855;BME280;9053;53.358;6.382;2024-01-10T08:40:51;103388.88;;;-1.87;88.83
17855;BME280;9053;53.358;6.382;2024-01-10T08:43:23;103386.00;;;-1.76;88.92
17855;BME280;9053;53.358;6.382;2024-01-10T08:45:53;103388.75;;;-1.67;88.86
17855;BME280;9053;53.358;6.382;2024-01-10T08:48:29;103385.81;;;-1.70;88.80
17855;BME280;9053;53.358;6.382;2024-01-10T08:50:59;103390.22;;;-1.69;88.62
17855;BME280;9053;53.358;6.382;2024-01-10T08:53:29;103389.00;;;-1.58;88.57
17855;BME280;9053;53.358;6.382;2024-01-10T08:55:59;103393.06;;;-1.53;88.42
17855;BME280;9053;53.358;6.382;2024-01-10T08:58:29;103404.50;;;-1.51;88.28
17855;BME280;9053;53.358;6.382;2024-01-10T09:00:59;103403.03;;;-1.42;88.35
17855;BME280;9053;53.358;6.382;2024-01-10T09:03:33;103386.28;;;-1.38;88.19
17855;BME280;9053;53.358;6.382;2024-01-10T09:06:05;103386.09;;;-1.40;88.12
17855;BME280;9053;53.358;6.382;2024-01-10T09:08:38;103389.38;;;-1.48;87.96
17855;BME280;9053;53.358;6.382;2024-01-10T09:11:09;103392.34;;;-1.45;88.12
17855;BME280;9053;53.358;6.382;2024-01-10T09:13:39;103391.97;;;-1.48;88.19
17855;BME280;9053;53.358;6.382;2024-01-10T09:16:11;103388.44;;;-1.56;88.17
17855;BME280;9053;53.358;6.382;2024-01-10T09:18:46;103396.19;;;-1.56;88.38
17855;BME280;9053;53.358;6.382;2024-01-10T09:21:21;103407.91;;;-1.72;88.26
17855;BME280;9053;53.358;6.382;2024-01-10T09:23:51;103400.19;;;-1.72;88.34
17855;BME280;9053;53.358;6.382;2024-01-10T09:26:22;103408.09;;;-1.78;88.26
17855;BME280;9053;53.358;6.382;2024-01-10T09:28:57;103412.00;;;-1.67;88.31
17855;BME280;9053;53.358;6.382;2024-01-10T09:31:28;103401.09;;;-1.71;88.16
17855;BME280;9053;53.358;6.382;2024-01-10T09:34:01;103396.66;;;-1.80;88.08
17855;BME280;9053;53.358;6.382;2024-01-10T09:36:31;103389.34;;;-1.62;88.21
17855;BME280;9053;53.358;6.382;2024-01-10T09:39:02;103384.56;;;-1.59;87.97
17855;BME280;9053;53.358;6.382;2024-01-10T09:41:44;103391.53;;;-1.72;87.76
17855;BME280;9053;53.358;6.382;2024-01-10T09:44:15;103390.91;;;-1.84;87.72
17855;BME280;9053;53.358;6.382;2024-01-10T09:46:53;103392.00;;;-1.89;87.69
17855;BME280;9053;53.358;6.382;2024-01-10T09:49:26;103380.47;;;-1.79;87.86
17855;BME280;9053;53.358;6.382;2024-01-10T09:52:10;103379.38;;;-1.66;87.67
17855;BME280;9053;53.358;6.382;2024-01-10T09:54:42;103379.03;;;-1.55;87.61
17855;BME280;9053;53.358;6.382;2024-01-10T09:57:13;103387.69;;;-1.62;87.44
17855;BME280;9053;53.358;6.382;2024-01-10T09:59:43;103385.50;;;-1.52;87.43
17855;BME280;9053;53.358;6.382;2024-01-10T10:02:15;103385.16;;;-1.47;87.16
17855;BME280;9053;53.358;6.382;2024-01-10T10:04:54;103403.03;;;-1.56;86.87
17855;BME280;9053;53.358;6.382;2024-01-10T10:07:25;103397.63;;;-1.65;86.71
17855;BME280;9053;53.358;6.382;2024-01-10T10:09:58;103380.19;;;-1.46;86.85
17855;BME280;9053;53.358;6.382;2024-01-10T10:12:41;103383.69;;;-1.38;86.59
17855;BME280;9053;53.358;6.382;2024-01-10T10:15:13;103391.97;;;-1.48;86.47
17855;BME280;9053;53.358;6.382;2024-01-10T10:17:44;103386.09;;;-1.40;86.39
17855;BME280;9053;53.358;6.382;2024-01-10T10:20:26;103390.34;;;-1.33;86.26
17855;BME280;9053;53.358;6.382;2024-01-10T10:23:01;103380.72;;;-1.48;85.84
17855;BME280;9053;53.358;6.382;2024-01-10T10:25:36;103375.00;;;-1.39;85.78
17855;BME280;9053;53.358;6.382;2024-01-10T10:28:06;103379.13;;;-1.12;85.84
17855;BME280;9053;53.358;6.382;2024-01-10T10:30:46;103375.06;;;-1.17;85.36
17855;BME280;9053;53.358;6.382;2024-01-10T10:33:17;103365.09;;;-1.28;84.88
17855;BME280;9053;53.358;6.382;2024-01-10T10:35:52;103365.06;;;-1.21;84.58
17855;BME280;9053;53.358;6.382;2024-01-10T10:38:24;103362.72;;;-1.05;84.43
17855;BME280;9053;53.358;6.382;2024-01-10T10:40:57;103374.50;;;-1.07;83.96
17855;BME280;9053;53.358;6.382;2024-01-10T10:43:33;103371.75;;;-0.88;83.75
17855;BME280;9053;53.358;6.382;2024-01-10T10:46:05;103375.81;;;-0.82;83.52
17855;BME280;9053;53.358;6.382;2024-01-10T10:48:36;103373.38;;;-0.81;83.12
17855;BME280;9053;53.358;6.382;2024-01-10T10:51:14;103374.88;;;-0.90;82.74
17855;BME280;9053;53.358;6.382;2024-01-10T10:53:45;103373.56;;;-0.87;82.50
17855;BME280;9053;53.358;6.382;2024-01-10T10:56:17;103374.50;;;-0.86;82.12
17855;BME280;9053;53.358;6.382;2024-01-10T10:58:53;103368.97;;;-0.89;81.90
17855;BME280;9053;53.358;6.382;2024-01-10T11:01:28;103365.09;;;-0.85;81.67
17855;BME280;9053;53.358;6.382;2024-01-10T11:03:58;103359.94;;;-0.85;81.50
17855;BME280;9053;53.358;6.382;2024-01-10T11:06:32;103375.97;;;-0.81;81.34
17855;BME280;9053;53.358;6.382;2024-01-10T11:09:05;103361.78;;;-0.84;81.00
17855;BME280;9053;53.358;6.382;2024-01-10T11:12:04;103368.59;;;-0.78;80.68
17855;BME280;9053;53.358;6.382;2024-01-10T11:14:51;103360.09;;;-0.62;80.48
17855;BME280;9053;53.358;6.382;2024-01-10T11:17:44;103363.19;;;-0.51;80.48
17855;BME280;9053;53.358;6.382;2024-01-10T11:20:36;103354.38;;;-0.74;79.75
17855;BME280;9053;53.358;6.382;2024-01-10T11:23:32;103357.50;;;-0.62;79.70
17855;BME280;9053;53.358;6.382;2024-01-10T11:26:09;103354.00;;;-0.77;79.10
17855;BME280;9053;53.358;6.382;2024-01-10T11:28:48;103348.09;;;-0.83;78.79
17855;BME280;9053;53.358;6.382;2024-01-10T11:31:27;103348.84;;;-0.84;78.45
17855;BME280;9053;53.358;6.382;2024-01-10T11:33:59;103356.22;;;-0.73;78.55
17855;BME280;9053;53.358;6.382;2024-01-10T11:36:30;103356.59;;;-0.63;78.39
17855;BME280;9053;53.358;6.382;2024-01-10T11:39:04;103357.44;;;-0.41;78.34
17855;BME280;9053;53.358;6.382;2024-01-10T11:41:35;103342.84;;;-0.40;78.33
17855;BME280;9053;53.358;6.382;2024-01-10T11:44:34;103350.19;;;-0.22;78.20
17855;BME280;9053;53.358;6.382;2024-01-10T11:47:04;103349.47;;;-0.28;77.78
17855;BME280;9053;53.358;6.382;2024-01-10T11:49:34;103343.25;;;-0.45;77.27
17855;BME280;9053;53.358;6.382;2024-01-10T11:52:04;103355.63;;;-0.42;76.97
17855;BME280;9053;53.358;6.382;2024-01-10T11:54:41;103345.66;;;-0.53;76.55
17855;BME280;9053;53.358;6.382;2024-01-10T11:57:13;103338.22;;;-0.36;76.54
17855;BME280;9053;53.358;6.382;2024-01-10T11:59:44;103336.50;;;-0.21;76.38
17855;BME280;9053;53.358;6.382;2024-01-10T12:02:14;103329.81;;;-0.05;76.07
17855;BME280;9053;53.358;6.382;2024-01-10T12:04:45;103338.13;;;-0.07;75.64
17855;BME280;9053;53.358;6.382;2024-01-10T12:07:16;103330.84;;;0.05;75.67
17855;BME280;9053;53.358;6.382;2024-01-10T12:09:52;103324.84;;;0.20;75.61
17855;BME280;9053;53.358;6.382;2024-01-10T12:12:23;103323.34;;;0.29;75.62
17855;BME280;9053;53.358;6.382;2024-01-10T12:14:53;103311.03;;;0.12;75.09
17855;BME280;9053;53.358;6.382;2024-01-10T12:17:28;103313.44;;;0.18;74.92
17855;BME280;9053;53.358;6.382;2024-01-10T12:20:01;103310.34;;;0.36;75.07
17855;BME280;9053;53.358;6.382;2024-01-10T12:22:31;103316.22;;;0.42;74.96
17855;BME280;9053;53.358;6.382;2024-01-10T12:25:07;103310.94;;;0.34;74.71
17855;BME280;9053;53.358;6.382;2024-01-10T12:27:37;103308.69;;;0.37;74.82
17855;BME280;9053;53.358;6.382;2024-01-10T12:30:08;103304.78;;;0.40;75.03
17855;BME280;9053;53.358;6.382;2024-01-10T12:32:44;103300.31;;;0.47;74.74
17855;BME280;9053;53.358;6.382;2024-01-10T12:35:17;103304.38;;;0.45;74.44
17855;BME280;9053;53.358;6.382;2024-01-10T12:37:55;103292.56;;;0.39;74.27
17855;BME280;9053;53.358;6.382;2024-01-10T12:40:28;103294.88;;;0.29;74.12
17855;BME280;9053;53.358;6.382;2024-01-10T12:43:02;103297.38;;;0.13;74.08
17855;BME280;9053;53.358;6.382;2024-01-10T12:45:32;103297.19;;;0.12;74.15
17855;BME280;9053;53.358;6.382;2024-01-10T12:48:02;103295.69;;;0.14;73.96
17855;BME280;9053;53.358;6.382;2024-01-10T12:50:35;103303.38;;;0.28;74.12
17855;BME280;9053;53.358;6.382;2024-01-10T12:53:05;103289.19;;;0.48;74.18
17855;BME280;9053;53.358;6.382;2024-01-10T12:55:38;103290.28;;;0.50;74.11
17855;BME280;9053;53.358;6.382;2024-01-10T12:58:08;103290.56;;;0.60;74.17
17855;BME280;9053;53.358;6.382;2024-01-10T13:00:38;103285.19;;;0.66;74.05
17855;BME280;9053;53.358;6.382;2024-01-10T13:03:09;103283.50;;;0.66;73.95
17855;BME280;9053;53.358;6.382;2024-01-10T13:05:40;103288.50;;;0.64;73.90
17855;BME280;9053;53.358;6.382;2024-01-10T13:08:10;103292.28;;;0.52;73.38
17855;BME280;9053;53.358;6.382;2024-01-10T13:10:43;103291.47;;;0.37;73.34
17855;BME280;9053;53.358;6.382;2024-01-10T13:13:13;103283.44;;;0.50;73.60
17855;BME280;9053;53.358;6.382;2024-01-10T13:15:45;103287.31;;;0.54;73.47
17855;BME280;9053;53.358;6.382;2024-01-10T13:18:16;103287.66;;;0.57;73.41
17855;BME280;9053;53.358;6.382;2024-01-10T13:20:48;103279.63;;;0.62;73.40
17855;BME280;9053;53.358;6.382;2024-01-10T13:23:18;103277.50;;;0.74;73.33
17855;BME280;9053;53.358;6.382;2024-01-10T13:25:53;103278.63;;;0.76;73.65
17855;BME280;9053;53.358;6.382;2024-01-10T13:28:23;103267.34;;;0.76;74.21
17855;BME280;9053;53.358;6.382;2024-01-10T13:30:57;103272.50;;;0.53;75.50
17855;BME280;9053;53.358;6.382;2024-01-10T13:33:28;103279.94;;;0.50;76.47
17855;BME280;9053;53.358;6.382;2024-01-10T13:35:58;103284.13;;;0.56;77.38